Hartford, Arkansas
Current Conditions -  °F | °C
As of 11:15 PM on Tuesday 25 Nov 2014 (Local Time) from KRKR Reporting Station
Clear Clear  
Wind Chill: 35°   Ceiling: Unl
Heat Index: 35°   Visibility: 10mi
Dew Point: 30°   Wind: 3mph
Humidity: 81%   Direction: 190°S
Pressure: 30.12"   Gusts: NA
Location:  35.02°N, 94.38°W
Report Text: KRKR 260515Z AUTO 19003KT 10SM CLR 02/M01 A3012 RMK AO2 T00181011
Loading
Personal Weather Stations






























Interactive Weather Map New forecast layout! Learn more

10-Day Weather Forecast

Advertisements
Track Severe Weather on mobile